Aviation Digital Data Service (ADDS)

Output produced by METARs form (1936 UTC 23 January 2019)
found at http://www.aviationweather.gov/metar/data/
 
Forecast for: EKVG (SORVAAG/VAGAR , DK)
Text: TAF EKVG 231425Z 2315/2321 28013KT 9999 SCT030
Forecast period: 1500 to 2100 UTC 23 January 2019
Forecast type: FROM: standard forecast or significant change
Winds: from the W (280 degrees) at 15 MPH (13 knots; 6.7 m/s)
Visibility: 6 or more miles 10+ km)
Ceiling: at least 12,000 feet AGL
Clouds: scattered clouds at 3000 feet AGL
Weather: no significant weather forecast for this period
Text: TEMPO 2315/2321 3000 SHRASN BKN012 SCT020CB
Forecast period: 1500 to 2100 UTC 23 January 2019
Forecast type: TEMPORARY: The following changes expected for less than half the time period
Visibility: 1.86 miles (2.99 km)
Ceiling: 1200 feet AGL
Clouds: broken clouds at 1200 feet AGL
scattered clouds at 2000 feet AGL
Weather: SHRA SHSN  (rain showers, snow showers)